Time;durP1;ratioP1;P1;durP2;ratioP2;P2;SDS_P1;SDS_P2;PMS_P1;PMS_P2;Temp;Humidity;BMP_temperature;BMP_pressure;BME280_temperature;BME280_humidity;BME280_pressure;Samples;Min_cycle;Max_cycle;Signal;HPM_P1;HPM_P2
2022/05/14 00:00:02;;;;;;;5.78;3.15;;;11.50;99.10;;;;;;4175743;28;20061;-75
2022/05/14 00:02:04;;;;;;;5.63;2.20;;;11.50;99.20;;;;;;4196838;28;20958;-76
2022/05/14 00:04:09;;;;;;;4.90;2.30;;;11.40;99.40;;;;;;4182754;28;20596;-76
2022/05/14 00:06:14;;;;;;;11.93;3.85;;;11.40;99.70;;;;;;4178012;28;20062;-75
2022/05/14 00:08:16;;;;;;;14.93;8.30;;;11.40;99.90;;;;;;4181022;28;20075;-75
2022/05/14 00:10:21;;;;;;;15.43;7.43;;;11.40;99.90;;;;;;4191253;28;20148;-75
2022/05/14 00:14:43;;;;;;;24.23;11.02;;;11.40;99.90;;;;;;4172634;28;20080;-75
2022/05/14 00:16:46;;;;;;;25.60;12.60;;;11.50;99.60;;;;;;4163526;28;20076;-74
2022/05/14 00:18:48;;;;;;;34.30;14.98;;;11.40;99.50;;;;;;4170986;28;20050;-74
2022/05/14 00:20:51;;;;;;;40.83;18.88;;;11.40;99.60;;;;;;4151516;28;20056;-74
2022/05/14 00:22:53;;;;;;;55.08;23.23;;;11.40;99.80;;;;;;4166752;28;20053;-74
2022/05/14 00:24:55;;;;;;;53.00;22.90;;;11.40;99.70;;;;;;4167235;28;20062;-74
2022/05/14 00:26:56;;;;;;;47.00;20.05;;;11.40;99.60;;;;;;4166513;28;20062;-74
2022/05/14 00:29:02;;;;;;;26.52;12.45;;;11.30;99.80;;;;;;4170759;28;21239;-74
2022/05/14 00:31:04;;;;;;;18.92;9.02;;;11.30;99.90;;;;;;4159563;28;20161;-74
2022/05/14 00:33:07;;;;;;;10.38;3.95;;;11.30;99.90;;;;;;4177018;28;20057;-74
2022/05/14 00:35:10;;;;;;;26.52;11.27;;;11.30;99.90;;;;;;4153786;28;20864;-74
2022/05/14 00:37:12;;;;;;;46.20;20.27;;;11.30;99.90;;;;;;4152863;28;20089;-75
2022/05/14 00:39:14;;;;;;;110.63;48.70;;;11.30;99.90;;;;;;4168293;28;20128;-74
2022/05/14 00:41:16;;;;;;;80.32;36.35;;;11.20;99.90;;;;;;4173898;28;20874;-74
2022/05/14 00:43:18;;;;;;;97.97;44.22;;;11.20;99.90;;;;;;4152905;28;20279;-74
2022/05/14 00:45:23;;;;;;;86.13;41.33;;;11.10;99.90;;;;;;4156968;28;20049;-73
2022/05/14 00:47:27;;;;;;;82.40;40.33;;;11.10;99.90;;;;;;4179468;28;20181;-75
2022/05/14 00:49:31;;;;;;;35.95;19.40;;;11.10;99.90;;;;;;4164071;28;20178;-74
2022/05/14 00:51:33;;;;;;;26.55;17.70;;;11.10;99.90;;;;;;4159950;28;20062;-74
2022/05/14 00:53:38;;;;;;;21.40;15.38;;;11.10;99.90;;;;;;4139645;28;20070;-75
2022/05/14 00:55:42;;;;;;;18.08;13.82;;;11.10;99.90;;;;;;4172837;28;20161;-74
2022/05/14 00:57:45;;;;;;;9.15;7.18;;;11.10;99.90;;;;;;4168839;28;20956;-74
2022/05/14 00:59:48;;;;;;;9.38;5.97;;;11.10;99.90;;;;;;4163730;28;20148;-74
2022/05/14 01:01:50;;;;;;;6.05;4.60;;;11.10;99.90;;;;;;4165561;28;20584;-74
2022/05/14 01:03:52;;;;;;;7.15;2.85;;;11.10;99.90;;;;;;4164783;28;20050;-74
2022/05/14 01:05:55;;;;;;;5.57;1.60;;;10.90;99.90;;;;;;4167047;28;20101;-74
2022/05/14 01:08:00;;;;;;;4.80;1.65;;;10.90;99.90;;;;;;4172080;28;20057;-74
2022/05/14 01:10:05;;;;;;;5.65;3.33;;;10.80;99.90;;;;;;4173430;28;20049;-74
2022/05/14 01:12:08;;;;;;;4.78;3.67;;;10.80;99.90;;;;;;4166154;28;20193;-74
2022/05/14 01:14:10;;;;;;;3.38;3.17;;;10.80;99.90;;;;;;4165938;28;20058;-74
2022/05/14 01:16:11;;;;;;;4.45;2.65;;;10.80;99.90;;;;;;4164640;28;20054;-75
2022/05/14 01:18:13;;;;;;;2.95;2.15;;;10.80;99.90;;;;;;4166609;28;20062;-74
2022/05/14 01:20:17;;;;;;;4.90;2.10;;;10.80;99.90;;;;;;4175643;28;20058;-75
2022/05/14 01:22:41;;;;;;;5.45;2.35;;;10.80;99.90;;;;;;4153432;28;20064;-75
2022/05/14 01:27:18;;;;;;;3.28;2.63;;;10.80;99.90;;;;;;4161810;28;20050;-75
2022/05/14 01:29:24;;;;;;;4.70;2.50;;;10.70;99.90;;;;;;4161208;28;20072;-75
2022/05/14 01:31:27;;;;;;;1.98;1.85;;;10.80;99.90;;;;;;4166450;28;20772;-75
2022/05/14 01:33:29;;;;;;;6.63;3.03;;;10.70;99.90;;;;;;4165368;28;20056;-75
2022/05/14 01:35:33;;;;;;;3.63;2.35;;;10.70;99.90;;;;;;4178742;28;20070;-75
2022/05/14 01:37:36;;;;;;;5.13;2.78;;;10.80;99.90;;;;;;4172745;28;20047;-75
2022/05/14 01:39:38;;;;;;;2.45;2.00;;;10.70;99.90;;;;;;4174375;28;20065;-75
2022/05/14 01:41:40;;;;;;;1.95;1.80;;;10.70;99.90;;;;;;4169876;28;20096;-75
2022/05/14 01:43:42;;;;;;;4.47;1.60;;;10.60;99.90;;;;;;4173039;28;20065;-75
2022/05/14 01:45:44;;;;;;;2.65;1.63;;;10.60;99.90;;;;;;4162173;28;20172;-75
2022/05/14 01:47:45;;;;;;;1.67;1.58;;;10.60;99.90;;;;;;4166310;28;20137;-75
2022/05/14 01:49:47;;;;;;;5.10;1.42;;;10.50;99.90;;;;;;4169712;28;20169;-75
2022/05/14 01:51:49;;;;;;;5.93;1.50;;;10.50;99.90;;;;;;4158970;28;20046;-75
2022/05/14 01:53:53;;;;;;;5.32;2.28;;;10.40;99.90;;;;;;4162085;28;20057;-75
2022/05/14 01:55:55;;;;;;;2.22;1.55;;;10.50;99.90;;;;;;4148984;28;20065;-75
2022/05/14 01:57:56;;;;;;;6.45;1.58;;;10.40;99.90;;;;;;4167904;28;20060;-75
2022/05/14 01:59:58;;;;;;;2.30;1.52;;;10.40;99.90;;;;;;4170320;28;20069;-75
2022/05/14 02:02:00;;;;;;;1.60;1.15;;;10.40;99.90;;;;;;4161228;28;20117;-75
2022/05/14 02:04:07;;;;;;;2.55;1.00;;;10.50;99.90;;;;;;4160929;28;21084;-75
2022/05/14 02:06:08;;;;;;;3.65;1.10;;;10.50;99.90;;;;;;4166070;28;20815;-75
2022/05/14 02:08:11;;;;;;;1.90;1.30;;;10.40;99.90;;;;;;4158092;28;20911;-75
2022/05/14 02:10:13;;;;;;;3.22;1.38;;;10.40;99.90;;;;;;4162021;28;20643;-75
2022/05/14 02:12:15;;;;;;;2.92;0.80;;;10.40;99.90;;;;;;4160732;28;20058;-75
2022/05/14 02:14:17;;;;;;;2.35;1.13;;;10.30;99.90;;;;;;4171329;28;20066;-75
2022/05/14 02:16:19;;;;;;;2.63;1.20;;;10.40;99.90;;;;;;4169676;28;20045;-75
2022/05/14 02:18:21;;;;;;;4.68;1.30;;;10.30;99.90;;;;;;4156879;28;20054;-75
2022/05/14 02:20:24;;;;;;;2.03;0.90;;;10.40;99.90;;;;;;4168715;28;20049;-75
2022/05/14 02:22:26;;;;;;;7.05;2.80;;;10.40;99.90;;;;;;4158013;28;20267;-75
2022/05/14 02:24:28;;;;;;;2.47;1.05;;;10.40;99.90;;;;;;4158737;28;20177;-76
2022/05/14 02:26:30;;;;;;;5.68;1.33;;;10.40;99.90;;;;;;4170173;28;20754;-75
2022/05/14 02:28:33;;;;;;;2.28;1.40;;;10.40;99.90;;;;;;4173125;28;20127;-75
2022/05/14 02:30:34;;;;;;;2.08;1.17;;;10.40;99.90;;;;;;4174880;28;20077;-75
2022/05/14 02:32:38;;;;;;;3.20;1.27;;;10.40;99.90;;;;;;4160026;28;20062;-76
2022/05/14 02:34:39;;;;;;;1.73;1.02;;;10.40;99.90;;;;;;4170027;28;20794;-75
2022/05/14 02:36:41;;;;;;;3.05;1.30;;;10.40;99.90;;;;;;4187278;28;20049;-75
2022/05/14 02:38:42;;;;;;;2.63;1.00;;;10.40;99.90;;;;;;4174934;28;20088;-75
2022/05/14 02:40:44;;;;;;;1.88;1.05;;;10.40;99.90;;;;;;4168677;28;20068;-75
2022/05/14 02:42:46;;;;;;;4.07;1.05;;;10.40;99.90;;;;;;4171711;28;20144;-73
2022/05/14 02:44:48;;;;;;;3.50;1.83;;;10.40;99.90;;;;;;4180257;28;20066;-74
2022/05/14 02:46:50;;;;;;;1.40;1.30;;;10.40;99.90;;;;;;4168289;28;20177;-75
2022/05/14 02:48:52;;;;;;;6.38;1.45;;;10.40;99.90;;;;;;4183886;28;20096;-75
2022/05/14 02:50:57;;;;;;;3.95;1.60;;;10.40;99.90;;;;;;4172832;28;20125;-75
2022/05/14 02:52:59;;;;;;;3.08;1.10;;;10.40;99.90;;;;;;4172783;28;20109;-75
2022/05/14 02:55:01;;;;;;;6.03;1.40;;;10.40;99.90;;;;;;4151278;28;20931;-75
2022/05/14 02:57:05;;;;;;;2.72;1.17;;;10.30;99.90;;;;;;4168860;28;20058;-75
2022/05/14 02:59:07;;;;;;;3.95;1.20;;;10.40;99.90;;;;;;4154279;28;20813;-75
2022/05/14 03:01:09;;;;;;;3.58;1.58;;;10.30;99.90;;;;;;4171194;28;20058;-75
2022/05/14 03:03:10;;;;;;;5.38;1.58;;;10.30;99.90;;;;;;4171566;28;20093;-75
2022/05/14 03:05:14;;;;;;;8.45;1.52;;;10.20;99.90;;;;;;4168459;28;20053;-75
2022/05/14 03:07:17;;;;;;;2.08;1.88;;;10.10;99.90;;;;;;4165655;28;20046;-75
2022/05/14 03:09:19;;;;;;;3.08;1.40;;;10.10;99.90;;;;;;4156141;28;20085;-75
2022/05/14 03:11:21;;;;;;;2.72;2.05;;;10.10;99.90;;;;;;4172234;28;20081;-75
2022/05/14 03:13:23;;;;;;;6.28;1.20;;;10.10;99.90;;;;;;4169706;28;20902;-75
2022/05/14 03:15:24;;;;;;;2.55;1.30;;;10.10;99.90;;;;;;4170944;28;20061;-75
2022/05/14 03:17:27;;;;;;;1.55;1.45;;;10.10;99.90;;;;;;4170500;28;20061;-75
2022/05/14 03:19:29;;;;;;;4.70;1.95;;;10.10;99.90;;;;;;4157095;28;20173;-75
2022/05/14 03:21:31;;;;;;;1.85;1.50;;;10.10;99.90;;;;;;4153619;28;20050;-75
2022/05/14 03:23:33;;;;;;;3.05;1.20;;;10.00;99.90;;;;;;4164014;28;20069;-75
2022/05/14 03:25:35;;;;;;;2.10;1.38;;;10.10;99.90;;;;;;4167333;28;20056;-75
2022/05/14 03:27:38;;;;;;;1.55;1.40;;;10.00;99.90;;;;;;4162174;28;20133;-75
2022/05/14 03:29:40;;;;;;;4.05;2.03;;;10.10;99.90;;;;;;4182320;28;20049;-75
2022/05/14 03:31:43;;;;;;;3.80;2.20;;;10.00;99.90;;;;;;4161788;28;20054;-75
2022/05/14 03:33:45;;;;;;;2.05;1.65;;;10.00;99.90;;;;;;4182657;28;20050;-75
2022/05/14 03:35:47;;;;;;;3.95;1.80;;;10.00;99.90;;;;;;4171112;28;20050;-75
2022/05/14 03:37:48;;;;;;;4.07;1.67;;;9.90;99.90;;;;;;4174672;28;20050;-75
2022/05/14 03:39:50;;;;;;;2.25;1.75;;;10.00;99.90;;;;;;4174379;28;20050;-75
2022/05/14 03:41:53;;;;;;;3.35;1.83;;;9.90;99.90;;;;;;4167952;28;20053;-75
2022/05/14 03:43:55;;;;;;;2.45;1.98;;;9.90;99.90;;;;;;4172781;28;20065;-75
2022/05/14 03:45:57;;;;;;;2.20;2.00;;;9.90;99.90;;;;;;4141533;28;20789;-75
2022/05/14 03:48:04;;;;;;;2.90;2.13;;;9.90;99.90;;;;;;4161852;28;20067;-75
2022/05/14 03:50:06;;;;;;;4.35;2.55;;;9.90;99.90;;;;;;4160110;28;20846;-75
2022/05/14 03:52:08;;;;;;;2.63;2.20;;;9.90;99.90;;;;;;4159054;28;20050;-75
2022/05/14 03:54:10;;;;;;;3.28;2.00;;;9.80;99.90;;;;;;4164609;28;20869;-75
2022/05/14 03:56:12;;;;;;;2.55;1.30;;;9.80;99.90;;;;;;4160812;28;20062;-75
2022/05/14 03:58:13;;;;;;;2.78;1.60;;;9.80;99.90;;;;;;4162919;28;20085;-75
2022/05/14 04:00:16;;;;;;;2.75;2.03;;;9.80;99.90;;;;;;4165482;28;20160;-75
2022/05/14 04:02:17;;;;;;;1.48;1.38;;;9.80;99.90;;;;;;4167025;28;20065;-74
2022/05/14 04:04:19;;;;;;;1.80;1.70;;;9.80;99.90;;;;;;4167106;28;20950;-75
2022/05/14 04:06:21;;;;;;;2.88;2.05;;;9.70;99.90;;;;;;4148090;28;20144;-75
2022/05/14 04:08:22;;;;;;;2.22;1.45;;;9.70;99.90;;;;;;4170192;28;20667;-75
2022/05/14 04:10:24;;;;;;;3.75;1.48;;;9.80;99.90;;;;;;4161557;28;20058;-75
2022/05/14 04:12:27;;;;;;;4.03;1.30;;;9.90;99.90;;;;;;4158715;28;20746;-75
2022/05/14 04:14:28;;;;;;;2.10;1.30;;;9.90;99.90;;;;;;4163397;28;20152;-75
2022/05/14 04:16:30;;;;;;;6.68;2.13;;;9.90;99.90;;;;;;4156307;28;20058;-75
2022/05/14 04:18:32;;;;;;;1.80;1.70;;;10.00;99.90;;;;;;4157510;28;20100;-75
2022/05/14 04:20:33;;;;;;;4.40;1.70;;;10.10;99.90;;;;;;4158834;28;20058;-75
2022/05/14 04:22:35;;;;;;;2.05;1.80;;;10.10;99.90;;;;;;4143129;28;20121;-75
2022/05/14 04:24:37;;;;;;;7.50;1.85;;;10.10;99.90;;;;;;4158615;28;20064;-75
2022/05/14 04:26:39;;;;;;;2.53;1.60;;;10.20;99.90;;;;;;4149489;28;20050;-75
2022/05/14 04:28:40;;;;;;;5.65;2.40;;;10.20;99.90;;;;;;4176664;28;20069;-75
2022/05/14 04:30:42;;;;;;;2.10;1.90;;;10.30;99.90;;;;;;4158238;28;20068;-76
2022/05/14 04:32:44;;;;;;;6.40;2.08;;;10.40;99.90;;;;;;4154485;28;20141;-76
2022/05/14 04:34:46;;;;;;;4.00;2.08;;;10.40;99.90;;;;;;4152647;28;20064;-75
2022/05/14 04:36:48;;;;;;;5.78;2.15;;;10.50;99.90;;;;;;4157989;28;20168;-75
2022/05/14 04:38:50;;;;;;;2.78;1.63;;;10.50;99.90;;;;;;4161650;28;20065;-75
2022/05/14 04:40:51;;;;;;;2.40;1.70;;;10.60;99.90;;;;;;4161925;28;20065;-75
2022/05/14 04:42:53;;;;;;;4.45;2.00;;;10.70;99.90;;;;;;4161075;28;20053;-75
2022/05/14 04:44:56;;;;;;;3.95;2.40;;;10.80;99.90;;;;;;4157346;28;21495;-75
2022/05/14 04:46:57;;;;;;;5.50;2.78;;;10.80;99.90;;;;;;4166080;28;20112;-75
2022/05/14 04:48:59;;;;;;;11.63;3.05;;;10.90;99.90;;;;;;4157648;28;20869;-75
2022/05/14 04:51:00;;;;;;;5.43;1.95;;;10.90;99.90;;;;;;4156288;28;21268;-75
2022/05/14 04:53:02;;;;;;;3.45;1.88;;;11.00;99.90;;;;;;4163554;28;20091;-75
2022/05/14 04:55:08;;;;;;;4.15;2.30;;;11.10;99.90;;;;;;4160788;28;20057;-75
2022/05/14 04:57:10;;;;;;;4.10;1.67;;;11.20;99.90;;;;;;4163588;28;20841;-75
2022/05/14 04:59:13;;;;;;;2.22;1.55;;;11.30;99.90;;;;;;4165101;28;20863;-75
2022/05/14 05:01:16;;;;;;;8.35;2.38;;;11.40;99.90;;;;;;4160488;28;20148;-75
2022/05/14 05:03:18;;;;;;;5.75;1.80;;;11.50;99.90;;;;;;4159684;28;20871;-75
2022/05/14 05:05:19;;;;;;;4.18;1.77;;;11.60;99.90;;;;;;4163856;28;20279;-76
2022/05/14 05:07:21;;;;;;;7.63;2.10;;;11.60;99.90;;;;;;4163450;28;20161;-75
2022/05/14 05:09:23;;;;;;;6.47;1.65;;;11.70;99.90;;;;;;4161418;28;20053;-75
2022/05/14 05:11:24;;;;;;;1.95;1.40;;;11.80;99.90;;;;;;4157006;28;20671;-76
2022/05/14 05:13:28;;;;;;;1.52;1.42;;;12.00;99.90;;;;;;4157434;28;20064;-75
2022/05/14 05:15:30;;;;;;;3.25;1.52;;;12.10;99.90;;;;;;4138942;28;20063;-75
2022/05/14 05:17:32;;;;;;;7.32;1.70;;;12.20;99.90;;;;;;4148825;28;20223;-75
2022/05/14 05:19:34;;;;;;;1.80;1.70;;;12.20;99.80;;;;;;4161118;28;20054;-75
2022/05/14 05:21:35;;;;;;;3.53;1.30;;;12.30;99.90;;;;;;4158149;28;20065;-75
2022/05/14 05:23:37;;;;;;;3.38;1.20;;;12.30;99.70;;;;;;4162301;28;20097;-76
2022/05/14 05:25:39;;;;;;;2.67;1.20;;;12.40;99.50;;;;;;4150901;28;20058;-75
2022/05/14 05:27:40;;;;;;;3.55;1.40;;;12.50;98.80;;;;;;4156258;28;20120;-75
2022/05/14 05:29:42;;;;;;;5.05;1.15;;;12.50;98.00;;;;;;4163513;28;20062;-78
2022/05/14 05:31:44;;;;;;;3.90;1.40;;;12.70;97.30;;;;;;4164453;28;20068;-76
2022/05/14 05:33:46;;;;;;;4.38;1.85;;;12.80;97.10;;;;;;4166089;28;20065;-76
2022/05/14 05:35:48;;;;;;;6.32;1.13;;;12.90;96.80;;;;;;4161887;28;20058;-77
2022/05/14 05:37:50;;;;;;;2.85;1.35;;;12.90;96.40;;;;;;4163866;28;20062;-76
2022/05/14 05:39:51;;;;;;;2.13;1.25;;;13.10;96.20;;;;;;4162866;28;20053;-76
2022/05/14 05:41:54;;;;;;;2.25;1.17;;;13.20;95.60;;;;;;4161565;28;20900;-76
2022/05/14 05:43:55;;;;;;;2.00;1.20;;;13.30;94.80;;;;;;4161965;28;20054;-76
2022/05/14 05:45:57;;;;;;;4.22;1.10;;;13.50;93.90;;;;;;4151236;28;20061;-76
2022/05/14 05:47:59;;;;;;;2.35;1.33;;;13.60;93.20;;;;;;4163044;28;20108;-76
2022/05/14 05:50:00;;;;;;;2.75;1.35;;;13.80;92.90;;;;;;4164688;28;20068;-76
2022/05/14 05:52:02;;;;;;;3.75;1.13;;;13.90;91.80;;;;;;4161112;28;20062;-76
2022/05/14 05:58:46;;;;;;;2.72;0.95;;;14.40;90.40;;;;;;4162373;28;20054;-75
2022/05/14 06:00:48;;;;;;;2.83;1.40;;;14.50;90.50;;;;;;4163184;28;20109;-76
2022/05/14 06:02:49;;;;;;;1.27;0.90;;;14.60;90.30;;;;;;4160416;28;20063;-76
2022/05/14 06:04:51;;;;;;;3.15;1.13;;;14.70;89.90;;;;;;4163172;28;20875;-76
2022/05/14 06:06:53;;;;;;;3.50;1.02;;;14.80;89.20;;;;;;4163358;28;20851;-75
2022/05/14 06:08:54;;;;;;;2.08;1.13;;;14.90;89.10;;;;;;4165175;28;20182;-76
2022/05/14 06:10:56;;;;;;;5.03;1.08;;;15.00;87.90;;;;;;4166390;28;20062;-75
2022/05/14 06:12:58;;;;;;;1.30;0.80;;;15.20;87.60;;;;;;4194090;22;20132;-77
2022/05/14 06:15:00;;;;;;;2.28;1.10;;;15.30;88.00;;;;;;4168638;28;20109;-77
2022/05/14 06:17:02;;;;;;;1.58;0.90;;;15.30;87.10;;;;;;4152513;28;20054;-77
2022/05/14 06:19:05;;;;;;;4.35;0.82;;;15.50;86.50;;;;;;4154109;28;20877;-76
2022/05/14 06:21:07;;;;;;;3.97;1.00;;;15.60;85.30;;;;;;4166146;28;20058;-77
2022/05/14 06:23:08;;;;;;;1.67;0.90;;;15.70;85.50;;;;;;4149998;28;20896;-77
2022/05/14 06:25:11;;;;;;;1.00;0.73;;;15.80;85.00;;;;;;4167481;28;20054;-77
2022/05/14 06:27:13;;;;;;;3.08;1.05;;;15.90;84.50;;;;;;4167509;28;20050;-76
2022/05/14 06:29:15;;;;;;;1.70;0.68;;;16.00;84.90;;;;;;4149225;28;20059;-77
2022/05/14 06:31:17;;;;;;;2.40;0.60;;;16.00;83.30;;;;;;4158293;28;20058;-77
2022/05/14 06:33:19;;;;;;;1.30;0.80;;;16.10;81.80;;;;;;4167749;28;20054;-76
2022/05/14 06:35:21;;;;;;;1.75;0.75;;;16.20;81.90;;;;;;4153107;28;20046;-76
2022/05/14 06:37:23;;;;;;;1.77;0.88;;;16.30;81.60;;;;;;4149285;28;20050;-76
2022/05/14 06:39:24;;;;;;;15.38;1.63;;;16.30;81.50;;;;;;4151787;28;20059;-76
2022/05/14 06:41:26;;;;;;;2.63;0.77;;;16.40;81.90;;;;;;4166410;28;20101;-76
2022/05/14 06:43:28;;;;;;;4.15;1.00;;;16.40;81.10;;;;;;4170438;28;20161;-76
2022/05/14 06:45:30;;;;;;;1.10;0.80;;;16.40;81.70;;;;;;4162563;28;20069;-76
2022/05/14 06:47:32;;;;;;;2.33;0.88;;;16.50;79.30;;;;;;4160258;28;20058;-76
2022/05/14 06:49:33;;;;;;;1.83;0.80;;;16.50;79.60;;;;;;4160880;28;20054;-74
2022/05/14 06:51:35;;;;;;;6.97;1.00;;;16.60;79.50;;;;;;4168403;28;20061;-74
2022/05/14 06:53:39;;;;;;;0.82;0.50;;;16.70;80.30;;;;;;4161887;28;20238;-73
2022/05/14 06:55:42;;;;;;;2.55;0.85;;;16.70;80.60;;;;;;4160180;28;20161;-73
2022/05/14 06:57:44;;;;;;;1.60;0.50;;;16.70;79.40;;;;;;4159653;28;20084;-73
2022/05/14 06:59:46;;;;;;;2.22;0.65;;;16.70;71.90;;;;;;4160613;28;20893;-74
2022/05/14 07:01:48;;;;;;;3.47;0.57;;;16.70;73.10;;;;;;4162097;28;20045;-74
2022/05/14 07:08:32;;;;;;;4.25;1.15;;;16.90;73.00;;;;;;4156548;28;20141;-73
2022/05/14 07:10:34;;;;;;;2.08;1.20;;;16.90;73.50;;;;;;4153753;28;21214;-73
2022/05/14 07:12:36;;;;;;;4.82;1.50;;;16.90;73.40;;;;;;4141833;28;20054;-73
2022/05/14 07:14:43;;;;;;;1.80;1.08;;;16.90;71.90;;;;;;4154993;28;20062;-74
2022/05/14 07:16:47;;;;;;;1.05;0.60;;;16.90;73.10;;;;;;4158787;28;20952;-73
2022/05/14 07:18:49;;;;;;;2.83;0.70;;;17.00;72.70;;;;;;4158346;28;20060;-73
2022/05/14 07:20:51;;;;;;;1.10;0.60;;;17.10;72.90;;;;;;4159499;28;20061;-73
2022/05/14 07:22:52;;;;;;;2.35;0.60;;;17.10;72.60;;;;;;4160129;28;20065;-74
2022/05/14 07:24:54;;;;;;;3.38;0.55;;;17.10;72.00;;;;;;4160259;28;20161;-73
2022/05/14 07:26:58;;;;;;;1.50;0.60;;;17.20;72.60;;;;;;4157750;28;20041;-74
2022/05/14 07:29:01;;;;;;;1.67;0.73;;;17.20;70.60;;;;;;4165758;28;20057;-73
2022/05/14 07:31:03;;;;;;;1.30;0.60;;;17.20;71.30;;;;;;4160528;28;20080;-74
2022/05/14 07:33:05;;;;;;;2.53;0.82;;;17.20;70.00;;;;;;4147583;28;20129;-73
2022/05/14 07:35:07;;;;;;;1.95;0.50;;;17.10;70.10;;;;;;4165444;28;20100;-73
2022/05/14 07:37:27;;;;;;;5.43;0.60;;;17.20;69.70;;;;;;4165442;28;20058;-73
2022/05/14 07:39:45;;;;;;;1.05;0.55;;;17.20;70.30;;;;;;4166035;28;20869;-74
2022/05/14 07:41:49;;;;;;;0.60;0.60;;;17.30;70.60;;;;;;4166880;28;20057;-73
2022/05/14 07:43:53;;;;;;;2.40;0.65;;;17.40;70.50;;;;;;4164662;28;20069;-74
2022/05/14 07:46:01;;;;;;;4.13;0.80;;;17.50;70.10;;;;;;4163655;28;20128;-73
2022/05/14 07:48:06;;;;;;;2.20;0.45;;;17.50;70.60;;;;;;4165432;28;20836;-72
2022/05/14 07:50:09;;;;;;;3.95;0.65;;;17.50;69.90;;;;;;4166304;28;20050;-72
2022/05/14 07:52:12;;;;;;;1.50;0.50;;;17.50;68.60;;;;;;4144639;28;20054;-72
2022/05/14 07:54:14;;;;;;;3.30;0.70;;;17.50;66.90;;;;;;4167521;28;20066;-73
2022/05/14 07:56:16;;;;;;;4.68;0.80;;;17.50;65.80;;;;;;4166245;28;20072;-75
2022/05/14 07:58:18;;;;;;;1.00;0.63;;;17.50;67.90;;;;;;4166219;28;20796;-73
2022/05/14 08:00:20;;;;;;;1.65;0.75;;;17.60;67.70;;;;;;4168642;28;20065;-74
2022/05/14 08:02:31;;;;;;;1.30;0.50;;;17.60;66.70;;;;;;4165277;28;20058;-74
2022/05/14 08:04:33;;;;;;;3.80;0.88;;;17.60;66.60;;;;;;4171679;28;20046;-74
2022/05/14 08:06:35;;;;;;;3.65;0.85;;;17.70;66.60;;;;;;4168648;28;20058;-74
2022/05/14 08:08:37;;;;;;;2.83;1.08;;;17.80;67.10;;;;;;4163790;28;20050;-74
2022/05/14 08:10:39;;;;;;;4.85;0.73;;;17.90;64.70;;;;;;4162998;28;20053;-74
2022/05/14 08:12:43;;;;;;;2.28;0.68;;;17.80;62.80;;;;;;4160580;28;20061;-74
2022/05/14 08:14:45;;;;;;;1.02;0.80;;;17.80;62.90;;;;;;4163062;28;20064;-75
2022/05/14 08:16:47;;;;;;;4.47;0.75;;;17.90;65.40;;;;;;4153249;28;20054;-75
2022/05/14 08:18:49;;;;;;;2.45;0.52;;;17.90;63.50;;;;;;4163547;28;20565;-74
2022/05/14 08:20:51;;;;;;;3.47;1.05;;;18.00;62.90;;;;;;4135231;28;20058;-72
2022/05/14 08:25:14;;;;;;;2.40;0.70;;;18.00;64.80;;;;;;4161784;28;20062;-73
2022/05/14 08:27:17;;;;;;;2.08;0.60;;;18.00;62.60;;;;;;4152324;28;20906;-74
2022/05/14 08:29:20;;;;;;;5.32;1.33;;;18.00;63.00;;;;;;4131587;28;21023;-74
2022/05/14 08:31:22;;;;;;;3.40;0.70;;;18.00;63.20;;;;;;4151154;28;20065;-74
2022/05/14 08:33:24;;;;;;;3.95;0.52;;;18.10;64.00;;;;;;4155456;28;20053;-74
2022/05/14 08:35:26;;;;;;;2.70;0.65;;;18.20;65.50;;;;;;4133437;28;20069;-73
2022/05/14 08:37:28;;;;;;;2.67;0.50;;;18.30;64.40;;;;;;4161588;28;20906;-74
2022/05/14 08:39:29;;;;;;;2.55;0.80;;;18.40;63.20;;;;;;4164750;28;20601;-75
2022/05/14 08:41:35;;;;;;;1.95;0.70;;;18.50;62.90;;;;;;4157861;28;20770;-73
2022/05/14 08:43:42;;;;;;;0.75;0.40;;;18.50;63.00;;;;;;4163158;28;20891;-73
2022/05/14 08:45:44;;;;;;;2.75;0.57;;;18.50;61.70;;;;;;4167222;28;20058;-72
2022/05/14 08:47:55;;;;;;;1.85;0.52;;;18.50;62.10;;;;;;4163181;28;20787;-73
2022/05/14 08:49:57;;;;;;;0.60;0.57;;;18.50;61.00;;;;;;4161110;28;20062;-73
2022/05/14 08:52:12;;;;;;;2.67;0.68;;;18.50;61.30;;;;;;4153633;28;20176;-73
2022/05/14 08:54:14;;;;;;;3.88;0.80;;;18.60;61.20;;;;;;4160225;28;20064;-73
2022/05/14 08:56:26;;;;;;;2.97;0.80;;;18.60;61.90;;;;;;4156096;28;20064;-73
2022/05/14 08:58:55;;;;;;;1.20;0.50;;;18.70;62.20;;;;;;4159466;28;20062;-72
2022/05/14 09:01:00;;;;;;;1.95;0.82;;;18.60;60.70;;;;;;4159680;28;20069;-72
2022/05/14 09:03:02;;;;;;;3.65;1.42;;;18.60;62.10;;;;;;4161730;28;20117;-73
2022/05/14 09:05:17;;;;;;;3.20;0.70;;;18.70;61.30;;;;;;4158169;28;20054;-73
2022/05/14 09:07:20;;;;;;;3.75;1.00;;;18.70;61.80;;;;;;4157271;28;20065;-74
2022/05/14 09:09:21;;;;;;;2.03;0.73;;;18.70;61.70;;;;;;4160482;28;20050;-74
2022/05/14 09:11:37;;;;;;;5.65;1.10;;;18.70;61.40;;;;;;4161111;28;20075;-75
2022/05/14 09:13:46;;;;;;;1.10;0.70;;;18.70;63.40;;;;;;4162618;28;20065;-74
2022/05/14 09:15:57;;;;;;;0.95;0.60;;;18.70;61.50;;;;;;4160183;28;20058;-74
2022/05/14 09:18:03;;;;;;;;;;;18.90;63.60;;;;;;4159653;28;20058;-74
2022/05/14 09:20:06;;;;;;;2.17;0.90;;;18.90;61.60;;;;;;4169924;28;19936;-74
2022/05/14 09:22:47;;;;;;;1.02;0.70;;;18.90;62.60;;;;;;4161161;28;20896;-73
2022/05/14 09:25:00;;;;;;;2.67;0.57;;;19.00;62.30;;;;;;4140887;28;20062;-73
2022/05/14 09:27:19;;;;;;;0.80;0.68;;;19.10;61.70;;;;;;4157896;28;20065;-73
2022/05/14 09:29:31;;;;;;;0.98;0.40;;;19.20;60.50;;;;;;4162037;28;20096;-73
2022/05/14 09:31:36;;;;;;;6.95;0.80;;;19.20;62.30;;;;;;4157906;28;20066;-73
2022/05/14 09:33:42;;;;;;;0.68;0.60;;;19.30;61.10;;;;;;4154864;28;20064;-72
2022/05/14 09:36:05;;;;;;;1.00;0.60;;;19.30;60.10;;;;;;4142403;28;20058;-73
2022/05/14 09:38:12;;;;;;;0.98;0.60;;;19.30;59.00;;;;;;4157897;28;20066;-73
2022/05/14 09:40:21;;;;;;;1.88;0.60;;;19.40;60.40;;;;;;4152511;28;20157;-73
2022/05/14 09:42:25;;;;;;;2.40;0.73;;;19.40;60.90;;;;;;4151476;28;20840;-73
2022/05/14 09:44:42;;;;;;;1.65;0.52;;;19.40;62.70;;;;;;4154090;28;20066;-74
2022/05/14 09:46:44;;;;;;;0.63;0.38;;;19.50;58.10;;;;;;4158605;28;20164;-73
2022/05/14 09:48:49;;;;;;;1.35;0.90;;;19.50;57.40;;;;;;4137646;28;20895;-73
2022/05/14 09:50:58;;;;;;;1.17;0.63;;;19.60;58.50;;;;;;4155530;28;20045;-73
2022/05/14 09:53:03;;;;;;;3.72;0.77;;;19.60;57.80;;;;;;4142583;28;20073;-73
2022/05/14 09:55:08;;;;;;;2.03;0.60;;;19.70;58.20;;;;;;4163257;28;20055;-72
2022/05/14 09:57:28;;;;;;;0.68;0.50;;;19.70;58.20;;;;;;4147702;28;20150;-73
2022/05/14 09:59:54;;;;;;;1.77;0.80;;;19.80;58.90;;;;;;4162339;28;20047;-73
2022/05/14 10:02:09;;;;;;;0.95;0.40;;;19.80;56.80;;;;;;4159366;28;20058;-73
2022/05/14 10:04:37;;;;;;;1.45;0.70;;;19.70;56.00;;;;;;4163375;28;20062;-73
2022/05/14 10:07:09;;;;;;;0.95;0.50;;;19.80;56.80;;;;;;4162178;28;20131;-77
2022/05/14 10:09:23;;;;;;;1.63;0.60;;;19.80;58.00;;;;;;4162997;28;20050;-73
2022/05/14 10:11:32;;;;;;;2.90;0.77;;;19.90;55.00;;;;;;4142734;28;20669;-73
2022/05/14 10:13:40;;;;;;;2.47;1.13;;;20.00;55.60;;;;;;4145446;28;20173;-72
2022/05/14 10:15:58;;;;;;;1.88;0.43;;;20.10;56.20;;;;;;4161004;28;20068;-73
2022/05/14 10:18:18;;;;;;;3.03;0.73;;;20.10;55.20;;;;;;4159097;28;20925;-73
2022/05/14 10:20:37;;;;;;;1.35;0.60;;;20.20;56.40;;;;;;4140499;28;20133;-73
2022/05/14 10:28:04;;;;;;;1.02;0.70;;;20.30;53.50;;;;;;4159997;28;20069;-73
2022/05/14 10:30:09;;;;;;;1.58;0.52;;;20.30;56.50;;;;;;4160637;28;20062;-73
2022/05/14 10:32:17;;;;;;;3.63;1.05;;;20.40;56.10;;;;;;4160229;28;20105;-73
2022/05/14 10:34:34;;;;;;;1.90;1.08;;;20.40;53.20;;;;;;4170257;28;20960;-73
2022/05/14 10:36:54;;;;;;;2.78;1.10;;;20.40;55.20;;;;;;4161437;28;20054;-73
2022/05/14 10:39:07;;;;;;;2.45;0.60;;;20.40;54.90;;;;;;4141186;28;20062;-73
2022/05/14 10:41:09;;;;;;;2.97;1.17;;;20.20;52.30;;;;;;4158177;28;20152;-73
2022/05/14 10:43:45;;;;;;;1.35;0.50;;;20.20;54.80;;;;;;4164916;28;20758;-73
2022/05/14 10:45:51;;;;;;;1.75;1.00;;;20.00;56.20;;;;;;4156337;28;20058;-73
2022/05/14 10:48:30;;;;;;;3.08;2.03;;;20.20;57.00;;;;;;4156298;28;20054;-73
2022/05/14 10:50:31;;;;;;;1.95;1.13;;;20.30;56.70;;;;;;4138814;28;20058;-73
2022/05/14 10:52:37;;;;;;;2.60;0.70;;;20.40;55.60;;;;;;4155927;28;20786;-73
2022/05/14 10:54:38;;;;;;;1.88;0.75;;;20.60;51.10;;;;;;4153010;28;20565;-74
2022/05/14 10:56:55;;;;;;;0.88;0.50;;;20.70;51.70;;;;;;4154610;28;20062;-73
2022/05/14 10:59:09;;;;;;;1.27;0.60;;;20.80;55.30;;;;;;4143403;28;20594;-74
2022/05/14 11:01:46;;;;;;;1.70;0.60;;;20.80;53.10;;;;;;4158632;28;20143;-74
2022/05/14 11:03:58;;;;;;;1.25;0.70;;;20.80;52.90;;;;;;4148037;28;20051;-73
2022/05/14 11:06:03;;;;;;;1.95;0.60;;;20.80;53.00;;;;;;4158750;28;20854;-79
2022/05/14 11:08:14;;;;;;;1.75;0.68;;;20.80;52.90;;;;;;4151015;28;20058;-73